Аэропорт: Львов имени Даниила Галицкого. Львов

ICAO: UKLL

METAR:
2020-06-02 08:30:00
UKLL 020830Z 32006MPS 9999 SCT040CB 13/04 Q1009 R31/D NOSIG
METAR:
2020-06-02 05:02:00
TAF UKLL 020502Z 0206/0306 30006G11MPS 5000 BR BKN010 BKN020CB TEMPO 0209/0306 32008G14MPS 2100 -SHRA SCT004 BKN007 BKN015CB